Time;durP1;ratioP1;P1;durP2;ratioP2;P2;SDS_P1;SDS_P2;PMS_P1;PMS_P2;Temp;Humidity;BMP_temperature;BMP_pressure;BME280_temperature;BME280_humidity;BME280_pressure;Samples;Min_cycle;Max_cycle;Signal;HPM_P1;HPM_P2
2020/12/28 00:01:37;;;;;;;7.22;3.25;;;5.50;99.90;;;;;;5008726;28;20046;-82
2020/12/28 00:04:03;;;;;;;8.82;3.33;;;5.40;99.90;;;;;;5004780;28;21487;-82
2020/12/28 00:06:29;;;;;;;5.82;3.33;;;5.50;99.90;;;;;;5012804;28;20086;-84
2020/12/28 00:08:56;;;;;;;4.88;2.97;;;5.50;99.90;;;;;;5009570;28;20454;-82
2020/12/28 00:11:22;;;;;;;6.22;3.33;;;5.40;99.90;;;;;;5010973;28;20116;-84
2020/12/28 00:13:48;;;;;;;8.27;3.80;;;5.50;99.90;;;;;;4988848;28;20098;-84
2020/12/28 00:16:16;;;;;;;7.88;3.78;;;5.50;99.90;;;;;;4989994;28;20504;-84
2020/12/28 00:18:42;;;;;;;6.53;3.30;;;5.50;99.90;;;;;;4993563;28;20054;-84
2020/12/28 00:21:09;;;;;;;6.60;3.50;;;5.60;99.90;;;;;;5006942;28;20057;-84
2020/12/28 00:23:36;;;;;;;7.95;3.25;;;5.60;99.90;;;;;;4994211;28;20133;-84
2020/12/28 00:26:03;;;;;;;6.60;2.92;;;5.50;99.90;;;;;;4982302;28;20061;-83
2020/12/28 00:28:29;;;;;;;4.43;2.47;;;5.60;99.90;;;;;;5006017;28;20050;-83
2020/12/28 00:30:56;;;;;;;9.25;3.50;;;5.70;99.90;;;;;;5002335;28;20049;-84
2020/12/28 00:33:23;;;;;;;7.55;3.33;;;5.70;99.90;;;;;;4995843;28;20054;-85
2020/12/28 00:35:50;;;;;;;5.82;2.15;;;5.60;99.90;;;;;;4992416;28;20047;-81
2020/12/28 00:38:17;;;;;;;4.20;2.38;;;5.60;99.90;;;;;;4987308;28;20050;-85
2020/12/28 00:40:43;;;;;;;3.22;1.77;;;5.70;99.90;;;;;;4988487;28;20049;-82
2020/12/28 00:43:09;;;;;;;3.05;1.60;;;5.80;99.90;;;;;;4991370;28;20050;-83
2020/12/28 00:45:36;;;;;;;4.60;1.83;;;5.80;99.90;;;;;;5003087;28;20049;-83
2020/12/28 00:48:02;;;;;;;2.13;1.50;;;5.80;99.90;;;;;;4987909;28;20056;-83
2020/12/28 00:50:29;;;;;;;3.78;1.20;;;5.90;99.90;;;;;;4994200;28;20084;-83
2020/12/28 00:52:55;;;;;;;2.35;1.38;;;5.90;99.90;;;;;;5009305;28;20492;-85
2020/12/28 00:55:22;;;;;;;1.80;0.98;;;6.00;99.90;;;;;;5010983;28;20448;-86
2020/12/28 00:57:48;;;;;;;3.03;1.33;;;6.00;99.90;;;;;;4994093;28;20713;-84
2020/12/28 01:00:15;;;;;;;1.17;0.70;;;6.00;99.90;;;;;;4990697;28;20050;-84
2020/12/28 01:02:42;;;;;;;0.80;0.80;;;6.00;99.90;;;;;;5013819;28;20045;-88
2020/12/28 01:05:08;;;;;;;1.77;0.70;;;6.00;99.90;;;;;;5009046;28;20064;-86
2020/12/28 01:07:34;;;;;;;1.77;0.60;;;6.10;99.90;;;;;;5008267;28;20405;-87
2020/12/28 01:10:01;;;;;;;1.40;0.80;;;6.00;99.90;;;;;;5012073;28;20136;-88
2020/12/28 01:12:27;;;;;;;0.80;0.70;;;6.10;99.90;;;;;;5003264;28;20445;-84
2020/12/28 01:14:54;;;;;;;0.90;0.50;;;6.10;99.90;;;;;;5006097;28;20049;-82
2020/12/28 01:17:23;;;;;;;0.43;0.43;;;6.10;99.90;;;;;;5010975;28;20052;-83
2020/12/28 01:19:50;;;;;;;0.60;0.43;;;6.10;99.90;;;;;;4991458;28;20107;-84
2020/12/28 01:22:16;;;;;;;0.43;0.43;;;6.00;99.90;;;;;;5012475;28;20049;-82
2020/12/28 01:24:42;;;;;;;0.40;0.30;;;6.10;99.90;;;;;;5009618;28;20427;-84
2020/12/28 01:27:09;;;;;;;0.88;0.50;;;6.10;99.90;;;;;;5008856;28;20038;-81
2020/12/28 01:29:37;;;;;;;0.65;0.47;;;6.10;99.90;;;;;;5007490;28;20129;-83
2020/12/28 01:32:05;;;;;;;0.68;0.30;;;6.10;99.90;;;;;;4989310;28;20390;-83
2020/12/28 01:34:31;;;;;;;0.60;0.40;;;6.00;99.90;;;;;;4999445;28;20054;-82
2020/12/28 01:36:58;;;;;;;0.45;0.43;;;6.10;99.90;;;;;;4992532;28;20063;-82
2020/12/28 01:39:24;;;;;;;0.55;0.30;;;6.10;99.90;;;;;;4992824;28;20595;-83
2020/12/28 01:41:51;;;;;;;0.60;0.40;;;6.10;99.90;;;;;;4988549;28;20046;-83
2020/12/28 01:44:17;;;;;;;1.83;0.52;;;6.20;99.90;;;;;;4991390;28;20053;-82
2020/12/28 01:46:44;;;;;;;1.13;0.32;;;6.20;99.90;;;;;;5009813;28;20046;-84
2020/12/28 01:49:10;;;;;;;4.43;0.50;;;6.20;99.90;;;;;;5010011;28;20133;-83
2020/12/28 01:51:37;;;;;;;0.40;0.40;;;6.20;99.90;;;;;;5007568;28;20042;-83
2020/12/28 01:54:04;;;;;;;0.50;0.50;;;6.30;99.90;;;;;;5008434;28;20061;-84
2020/12/28 01:56:35;;;;;;;1.98;0.45;;;6.30;99.90;;;;;;5010130;28;20499;-83
2020/12/28 01:59:02;;;;;;;3.03;0.50;;;6.30;99.90;;;;;;4991026;28;20046;-83
2020/12/28 02:01:35;;;;;;;1.15;0.40;;;6.40;99.90;;;;;;5009350;28;20045;-83
2020/12/28 02:04:01;;;;;;;1.92;0.63;;;6.30;99.90;;;;;;4993235;28;20121;-82
2020/12/28 02:06:27;;;;;;;0.50;0.45;;;6.30;99.90;;;;;;4987383;28;20436;-82
2020/12/28 02:08:54;;;;;;;0.82;0.40;;;6.30;99.90;;;;;;4991613;28;20069;-84
2020/12/28 02:11:20;;;;;;;0.32;0.32;;;6.30;99.90;;;;;;4993161;28;20124;-84
2020/12/28 02:13:47;;;;;;;0.60;0.50;;;6.30;99.90;;;;;;4990913;28;20516;-82
2020/12/28 02:16:13;;;;;;;0.70;0.40;;;6.40;99.90;;;;;;4991914;28;20393;-82
2020/12/28 02:18:40;;;;;;;0.52;0.40;;;6.30;99.90;;;;;;4991905;28;20053;-84
2020/12/28 02:21:06;;;;;;;1.63;0.40;;;6.20;99.90;;;;;;5008980;28;20116;-83
2020/12/28 02:23:33;;;;;;;0.32;0.32;;;6.30;99.90;;;;;;4993397;28;20050;-85
2020/12/28 02:25:59;;;;;;;0.80;0.60;;;6.30;99.90;;;;;;4992634;28;20050;-84
2020/12/28 02:28:26;;;;;;;0.50;0.30;;;6.30;99.90;;;;;;4985566;28;20444;-84
2020/12/28 02:30:53;;;;;;;1.02;0.47;;;6.20;99.90;;;;;;5003218;28;20073;-84
2020/12/28 02:33:19;;;;;;;0.45;0.45;;;6.10;99.90;;;;;;5007822;28;20477;-83
2020/12/28 02:35:45;;;;;;;0.40;0.30;;;6.20;99.90;;;;;;5007457;28;20042;-83
2020/12/28 02:38:12;;;;;;;0.30;0.30;;;6.10;99.90;;;;;;4988520;28;20069;-82
2020/12/28 02:40:39;;;;;;;0.80;0.45;;;6.20;99.90;;;;;;4991827;28;20045;-82
2020/12/28 02:43:05;;;;;;;1.05;0.50;;;6.20;99.90;;;;;;4988794;28;20125;-79
2020/12/28 02:45:31;;;;;;;0.30;0.30;;;6.20;99.90;;;;;;4991963;28;20060;-81
2020/12/28 02:47:58;;;;;;;0.68;0.40;;;6.20;99.90;;;;;;4991029;28;20091;-81
2020/12/28 02:50:24;;;;;;;0.28;0.28;;;6.30;99.90;;;;;;4992523;28;20057;-83
2020/12/28 02:52:51;;;;;;;0.50;0.40;;;6.20;99.90;;;;;;4999453;28;20165;-82
2020/12/28 02:55:17;;;;;;;0.95;0.50;;;6.10;99.90;;;;;;5005707;28;20104;-82
2020/12/28 02:57:44;;;;;;;0.47;0.40;;;6.10;99.90;;;;;;4990194;28;20059;-82
2020/12/28 03:00:10;;;;;;;0.55;0.30;;;6.10;99.90;;;;;;5005244;28;20045;-83
2020/12/28 03:02:37;;;;;;;0.60;0.60;;;6.00;99.90;;;;;;5006535;28;20847;-81
2020/12/28 03:05:04;;;;;;;0.47;0.45;;;6.10;99.90;;;;;;5005534;28;20100;-80
2020/12/28 03:07:30;;;;;;;0.55;0.40;;;6.20;99.90;;;;;;4986623;28;20061;-81
2020/12/28 03:09:57;;;;;;;0.82;0.40;;;6.20;99.90;;;;;;5007866;28;20038;-85
2020/12/28 03:12:24;;;;;;;0.75;0.40;;;6.10;99.90;;;;;;5005503;28;20088;-82
2020/12/28 03:14:51;;;;;;;0.88;0.47;;;6.20;99.90;;;;;;5003995;28;20042;-82
2020/12/28 03:17:17;;;;;;;0.65;0.40;;;6.20;99.90;;;;;;5008352;28;20532;-82
2020/12/28 03:19:44;;;;;;;0.98;0.57;;;6.20;99.90;;;;;;5000964;28;20045;-79
2020/12/28 03:22:10;;;;;;;2.08;0.60;;;6.10;99.90;;;;;;5006461;28;20054;-82
2020/12/28 03:24:36;;;;;;;0.90;0.40;;;6.20;99.90;;;;;;5006257;28;20100;-82
2020/12/28 03:27:03;;;;;;;1.02;0.40;;;6.00;99.90;;;;;;5003446;28;20098;-82
2020/12/28 03:29:30;;;;;;;1.02;0.50;;;6.00;99.90;;;;;;5004956;28;20050;-81
2020/12/28 03:31:57;;;;;;;0.70;0.50;;;6.20;99.90;;;;;;5002874;28;20096;-86
2020/12/28 03:34:23;;;;;;;0.95;0.70;;;6.20;99.90;;;;;;4996907;28;20105;-83
2020/12/28 03:36:50;;;;;;;0.52;0.52;;;6.20;99.90;;;;;;4986231;28;20047;-87
2020/12/28 03:39:17;;;;;;;0.47;0.30;;;6.10;99.90;;;;;;4980537;28;20062;-84
2020/12/28 03:41:44;;;;;;;0.82;0.45;;;6.30;99.90;;;;;;5006029;28;20354;-86
2020/12/28 03:44:22;;;;;;;0.45;0.40;;;6.30;99.90;;;;;;4985255;28;20528;-87
2020/12/28 03:46:48;;;;;;;1.45;0.50;;;6.30;99.90;;;;;;5001558;28;20718;-78
2020/12/28 03:49:15;;;;;;;0.70;0.40;;;6.30;99.90;;;;;;4996678;28;20046;-85
2020/12/28 03:51:42;;;;;;;0.50;0.40;;;6.30;99.90;;;;;;4988759;28;20062;-84
2020/12/28 03:54:08;;;;;;;0.68;0.50;;;6.20;99.90;;;;;;5000889;28;20053;-86
2020/12/28 03:56:34;;;;;;;2.13;0.50;;;6.20;99.90;;;;;;5003958;28;20455;-81
2020/12/28 03:59:01;;;;;;;1.10;0.43;;;6.30;99.90;;;;;;5003146;28;20213;-85
2020/12/28 04:01:28;;;;;;;0.77;0.45;;;6.30;99.90;;;;;;4984435;28;20461;-86
2020/12/28 04:03:54;;;;;;;0.75;0.40;;;6.30;99.90;;;;;;5007410;28;20046;-86
2020/12/28 04:06:20;;;;;;;0.40;0.40;;;6.30;99.90;;;;;;4992519;28;20054;-84
2020/12/28 04:08:47;;;;;;;0.55;0.45;;;6.40;99.90;;;;;;4980025;28;20493;-86
2020/12/28 04:11:13;;;;;;;1.88;0.50;;;6.50;99.90;;;;;;4998774;28;20058;-86
2020/12/28 04:13:39;;;;;;;0.43;0.43;;;6.40;99.90;;;;;;5009023;28;20057;-85
2020/12/28 04:16:06;;;;;;;1.00;0.52;;;6.40;99.90;;;;;;4997084;28;20181;-83
2020/12/28 04:18:32;;;;;;;0.43;0.43;;;6.30;99.90;;;;;;4997944;28;20112;-85
2020/12/28 04:20:58;;;;;;;1.67;0.70;;;6.40;99.90;;;;;;5009675;28;20049;-86
2020/12/28 04:23:25;;;;;;;2.05;0.50;;;6.40;99.90;;;;;;4996393;28;20170;-83
2020/12/28 04:25:52;;;;;;;0.90;0.70;;;6.50;99.90;;;;;;5004057;28;20059;-83
2020/12/28 04:28:19;;;;;;;1.20;0.50;;;6.50;99.90;;;;;;4994468;28;20563;-82
2020/12/28 04:30:45;;;;;;;0.85;0.50;;;6.50;99.90;;;;;;4987596;28;20076;-82
2020/12/28 04:33:11;;;;;;;0.60;0.50;;;6.50;99.90;;;;;;4994974;28;20049;-80
2020/12/28 04:35:38;;;;;;;0.50;0.50;;;6.40;99.90;;;;;;5005786;28;20529;-82
2020/12/28 04:38:04;;;;;;;0.40;0.40;;;6.50;99.90;;;;;;4995101;28;20041;-83
2020/12/28 04:40:30;;;;;;;0.47;0.43;;;6.60;99.90;;;;;;4990464;28;20482;-80
2020/12/28 04:42:58;;;;;;;0.57;0.52;;;6.60;99.90;;;;;;5002814;28;20046;-84
2020/12/28 04:45:24;;;;;;;0.95;0.50;;;6.60;99.90;;;;;;4992301;28;20046;-83
2020/12/28 04:47:54;;;;;;;0.52;0.50;;;6.50;99.90;;;;;;5000609;28;20471;-84
2020/12/28 04:50:20;;;;;;;0.77;0.57;;;6.60;99.90;;;;;;4993936;28;20108;-85
2020/12/28 04:52:49;;;;;;;0.40;0.40;;;6.60;99.90;;;;;;5014347;28;20137;-83
2020/12/28 04:55:17;;;;;;;0.50;0.50;;;6.60;99.90;;;;;;4991922;28;20106;-84
2020/12/28 04:57:43;;;;;;;0.50;0.50;;;6.60;99.90;;;;;;5001736;28;20054;-85
2020/12/28 05:00:09;;;;;;;1.40;0.55;;;6.60;99.90;;;;;;5007999;28;20053;-83
2020/12/28 05:02:39;;;;;;;0.57;0.47;;;6.60;99.90;;;;;;5003652;28;20046;-84
2020/12/28 05:05:06;;;;;;;2.67;0.60;;;6.70;99.90;;;;;;5012242;28;20046;-84
2020/12/28 05:07:33;;;;;;;0.65;0.60;;;6.70;99.90;;;;;;5009267;28;20058;-85
2020/12/28 05:10:00;;;;;;;1.60;0.93;;;6.70;99.90;;;;;;5002423;28;20045;-82
2020/12/28 05:12:27;;;;;;;2.50;1.15;;;6.70;99.90;;;;;;5000357;28;20486;-83
2020/12/28 05:15:07;;;;;;;1.73;1.17;;;6.70;99.90;;;;;;4996664;28;20049;-83
2020/12/28 05:17:33;;;;;;;1.45;0.90;;;6.60;99.90;;;;;;5006173;28;20046;-83
2020/12/28 05:20:00;;;;;;;1.75;1.17;;;6.50;99.90;;;;;;5007320;28;20065;-85
2020/12/28 05:22:28;;;;;;;2.20;1.50;;;6.70;99.90;;;;;;5010234;28;20064;-85
2020/12/28 05:24:57;;;;;;;2.45;1.50;;;6.70;99.90;;;;;;5008064;28;20042;-84
2020/12/28 05:27:25;;;;;;;4.60;1.60;;;6.70;99.90;;;;;;4993930;28;20054;-80
2020/12/28 05:29:53;;;;;;;3.75;1.90;;;6.70;99.90;;;;;;4993699;28;20054;-83
2020/12/28 05:32:19;;;;;;;3.13;1.92;;;6.70;99.90;;;;;;4996089;28;20049;-84
2020/12/28 05:34:47;;;;;;;2.20;1.17;;;6.80;99.90;;;;;;5010645;28;20054;-84
2020/12/28 05:37:14;;;;;;;2.58;1.10;;;6.70;99.90;;;;;;5006318;28;20464;-85
2020/12/28 05:39:41;;;;;;;1.40;1.00;;;6.70;99.90;;;;;;5010663;28;20065;-85
2020/12/28 05:42:10;;;;;;;1.95;0.98;;;6.70;99.90;;;;;;5007599;28;20050;-85
2020/12/28 05:44:44;;;;;;;1.73;0.98;;;6.70;99.90;;;;;;5009904;28;20049;-87
2020/12/28 05:47:16;;;;;;;2.42;0.90;;;6.60;99.90;;;;;;5004564;28;20054;-86
2020/12/28 05:49:47;;;;;;;3.60;1.10;;;6.60;99.90;;;;;;5010938;28;20497;-85
2020/12/28 05:52:15;;;;;;;2.55;1.00;;;6.70;99.90;;;;;;5006250;28;20104;-81
2020/12/28 05:54:43;;;;;;;2.75;0.93;;;6.70;99.90;;;;;;5007856;28;20501;-82
2020/12/28 05:57:10;;;;;;;1.55;0.88;;;6.80;99.90;;;;;;4992555;28;20050;-84
2020/12/28 05:59:37;;;;;;;1.65;1.10;;;6.80;99.90;;;;;;4981292;28;20053;-82
2020/12/28 06:02:07;;;;;;;2.88;1.50;;;6.80;99.90;;;;;;5008034;28;20042;-83
2020/12/28 06:04:33;;;;;;;1.67;1.00;;;6.70;99.90;;;;;;5005352;28;20477;-85
2020/12/28 06:07:04;;;;;;;1.63;1.10;;;6.60;99.90;;;;;;4991926;28;20136;-83
2020/12/28 06:09:31;;;;;;;2.15;1.10;;;6.70;99.90;;;;;;5008420;28;20057;-82
2020/12/28 06:12:10;;;;;;;1.70;1.02;;;6.60;99.90;;;;;;4983865;28;20053;-83
2020/12/28 06:14:38;;;;;;;2.00;1.10;;;6.60;99.90;;;;;;4992133;28;20058;-81
2020/12/28 06:17:06;;;;;;;1.20;1.10;;;6.70;99.90;;;;;;5007619;28;20309;-82
2020/12/28 06:19:33;;;;;;;1.80;1.25;;;6.70;99.90;;;;;;5010394;28;20072;-82
2020/12/28 06:22:00;;;;;;;2.92;1.20;;;6.60;99.90;;;;;;5001216;28;20041;-79
2020/12/28 06:24:34;;;;;;;1.67;1.20;;;6.60;99.90;;;;;;5011880;28;20046;-82
2020/12/28 06:27:08;;;;;;;1.50;1.10;;;6.60;99.90;;;;;;5005656;28;20116;-82
2020/12/28 06:29:37;;;;;;;3.63;1.50;;;6.70;99.90;;;;;;4986830;28;20057;-82
2020/12/28 06:32:13;;;;;;;2.53;1.50;;;6.60;99.90;;;;;;5006290;28;20149;-81
2020/12/28 06:34:42;;;;;;;2.67;1.70;;;6.70;99.90;;;;;;5007233;28;20124;-83
2020/12/28 06:37:09;;;;;;;2.80;1.85;;;6.60;99.90;;;;;;4993157;28;20045;-82
2020/12/28 06:39:36;;;;;;;2.83;1.90;;;6.70;99.90;;;;;;5009128;28;20055;-82
2020/12/28 06:42:13;;;;;;;2.85;1.80;;;6.70;99.90;;;;;;4992192;28;20095;-82
2020/12/28 06:44:41;;;;;;;4.25;2.13;;;6.80;99.90;;;;;;4999778;28;20046;-83
2020/12/28 06:47:21;;;;;;;3.95;2.00;;;6.70;99.90;;;;;;4987184;28;20174;-84
2020/12/28 06:49:48;;;;;;;6.23;2.43;;;6.80;99.90;;;;;;4987218;28;20457;-84
2020/12/28 06:52:15;;;;;;;4.30;2.20;;;6.70;99.90;;;;;;4984578;28;20309;-85
2020/12/28 06:54:43;;;;;;;3.05;2.10;;;6.70;99.90;;;;;;4991592;28;20104;-86
2020/12/28 06:57:10;;;;;;;5.35;2.20;;;6.70;99.90;;;;;;5001487;28;20050;-85
2020/12/28 06:59:39;;;;;;;3.60;2.35;;;6.70;99.90;;;;;;5001241;28;20402;-85
2020/12/28 07:02:07;;;;;;;5.40;2.70;;;6.70;99.90;;;;;;5007713;28;20404;-86
2020/12/28 07:04:39;;;;;;;5.60;2.95;;;6.60;99.90;;;;;;4990874;28;20421;-83
2020/12/28 07:07:07;;;;;;;5.80;2.80;;;6.50;99.90;;;;;;4994250;28;20513;-82
2020/12/28 07:09:36;;;;;;;5.43;3.28;;;6.40;99.90;;;;;;4992129;28;20087;-85
2020/12/28 07:12:10;;;;;;;4.70;2.83;;;6.30;99.90;;;;;;5006539;28;20053;-84
2020/12/28 07:14:37;;;;;;;3.75;2.58;;;6.30;99.90;;;;;;4989042;28;20132;-85
2020/12/28 07:17:04;;;;;;;21.60;2.88;;;6.30;99.90;;;;;;5005596;28;20053;-84
2020/12/28 07:19:31;;;;;;;7.30;2.97;;;6.20;99.90;;;;;;5008557;28;20046;-83
2020/12/28 07:21:57;;;;;;;10.43;3.28;;;6.10;99.90;;;;;;5009949;28;20100;-82
2020/12/28 07:24:24;;;;;;;5.15;3.15;;;6.10;99.90;;;;;;5008459;28;20049;-82
2020/12/28 07:26:51;;;;;;;5.28;3.17;;;6.10;99.90;;;;;;4985352;28;20046;-82
2020/12/28 07:29:19;;;;;;;6.72;3.80;;;6.10;99.90;;;;;;4990124;28;20054;-83
2020/12/28 07:31:46;;;;;;;8.23;3.83;;;6.10;99.90;;;;;;4997268;28;20054;-82
2020/12/28 07:34:18;;;;;;;4.60;3.33;;;6.20;99.90;;;;;;5010223;28;20113;-82
2020/12/28 07:36:47;;;;;;;4.40;2.80;;;6.10;99.90;;;;;;5006107;28;20050;-82
2020/12/28 07:39:14;;;;;;;8.77;3.80;;;6.10;99.90;;;;;;5008274;28;20104;-81
2020/12/28 07:41:41;;;;;;;6.88;3.20;;;6.20;99.90;;;;;;4984806;28;20038;-82
2020/12/28 07:44:13;;;;;;;4.85;3.15;;;6.20;99.90;;;;;;5002081;28;20132;-83
2020/12/28 07:46:58;;;;;;;4.93;3.17;;;6.20;99.90;;;;;;5012139;28;20438;-83
2020/12/28 07:49:27;;;;;;;4.22;3.10;;;6.10;99.90;;;;;;5014659;28;20108;-84
2020/12/28 07:52:08;;;;;;;4.60;3.47;;;6.00;99.90;;;;;;5008637;28;20100;-84
2020/12/28 07:54:44;;;;;;;5.07;3.95;;;6.20;99.90;;;;;;5008783;28;20119;-83
2020/12/28 07:57:20;;;;;;;6.40;3.45;;;6.20;99.90;;;;;;4992720;28;20053;-85
2020/12/28 07:59:51;;;;;;;5.10;3.38;;;6.30;99.90;;;;;;4989806;28;20049;-84
2020/12/28 08:02:43;;;;;;;4.05;3.22;;;6.30;99.90;;;;;;5010995;28;20049;-82
2020/12/28 08:05:11;;;;;;;4.82;3.42;;;6.40;99.90;;;;;;5005727;28;20044;-83
2020/12/28 08:07:37;;;;;;;5.07;3.50;;;6.40;99.90;;;;;;5009509;28;20054;-84
2020/12/28 08:10:08;;;;;;;6.03;3.90;;;6.20;99.90;;;;;;5013430;28;20049;-83
2020/12/28 08:12:58;;;;;;;5.43;3.45;;;6.10;99.90;;;;;;4996183;28;20077;-83
2020/12/28 08:15:27;;;;;;;5.85;3.75;;;6.00;99.90;;;;;;5010264;28;20493;-82
2020/12/28 08:18:23;;;;;;;9.70;4.40;;;6.20;99.90;;;;;;5012395;28;20045;-83
2020/12/28 08:20:57;;;;;;;5.93;3.85;;;6.10;99.90;;;;;;4986143;28;20054;-83
2020/12/28 08:23:27;;;;;;;5.70;3.90;;;6.10;99.90;;;;;;4982546;28;20050;-84
2020/12/28 08:25:54;;;;;;;6.15;4.18;;;6.10;99.90;;;;;;4988199;28;20146;-84
2020/12/28 08:28:21;;;;;;;8.57;4.43;;;6.10;99.90;;;;;;4999542;28;20104;-83
2020/12/28 08:30:48;;;;;;;7.03;4.07;;;6.20;99.90;;;;;;4996066;28;20119;-82
2020/12/28 08:33:18;;;;;;;5.45;3.47;;;6.20;99.90;;;;;;5007268;28;20602;-82
2020/12/28 08:35:51;;;;;;;5.15;3.65;;;6.10;99.90;;;;;;4984599;28;20050;-82
2020/12/28 08:38:28;;;;;;;6.15;3.97;;;6.10;99.90;;;;;;5000480;28;20120;-84
2020/12/28 08:40:55;;;;;;;6.72;4.25;;;6.20;99.90;;;;;;4985879;28;20061;-84
2020/12/28 08:43:22;;;;;;;5.03;3.78;;;6.30;99.90;;;;;;5007636;28;20745;-81
2020/12/28 08:45:59;;;;;;;5.18;3.10;;;6.30;99.90;;;;;;5009665;28;20129;-77
2020/12/28 08:48:25;;;;;;;5.13;2.88;;;6.10;99.90;;;;;;5005208;28;20081;-76
2020/12/28 08:50:52;;;;;;;6.07;3.35;;;6.00;99.90;;;;;;4985920;28;20061;-75
2020/12/28 08:53:23;;;;;;;10.38;2.60;;;6.10;99.90;;;;;;5002848;28;20053;-75
2020/12/28 08:56:00;;;;;;;4.95;2.90;;;6.20;99.90;;;;;;5006082;28;20664;-76
2020/12/28 08:58:28;;;;;;;4.72;2.55;;;6.20;99.90;;;;;;5000948;28;20050;-77
2020/12/28 09:00:55;;;;;;;4.72;2.53;;;6.20;99.90;;;;;;5008545;28;20871;-79
2020/12/28 09:03:21;;;;;;;4.60;2.30;;;6.20;99.90;;;;;;5005444;28;20046;-79
2020/12/28 09:05:47;;;;;;;3.03;2.00;;;6.10;99.90;;;;;;5008846;28;20624;-75
2020/12/28 09:08:14;;;;;;;3.50;2.15;;;6.10;99.90;;;;;;4991506;28;20506;-77
2020/12/28 09:10:40;;;;;;;3.13;1.88;;;6.10;99.90;;;;;;4988459;28;20049;-76
2020/12/28 09:13:06;;;;;;;4.05;1.90;;;6.20;99.90;;;;;;5004217;28;20483;-78
2020/12/28 09:15:33;;;;;;;2.28;1.83;;;6.30;99.90;;;;;;5006221;28;20089;-76
2020/12/28 09:17:59;;;;;;;2.35;1.67;;;6.30;99.90;;;;;;5005949;28;20539;-77
2020/12/28 09:20:25;;;;;;;2.63;1.60;;;6.40;99.90;;;;;;4988007;28;20108;-76
2020/12/28 09:22:53;;;;;;;1.45;1.27;;;6.40;99.90;;;;;;4990173;28;20484;-78
2020/12/28 09:25:19;;;;;;;1.90;1.65;;;6.30;99.90;;;;;;4991161;28;20100;-77
2020/12/28 09:27:46;;;;;;;1.77;1.30;;;6.40;99.90;;;;;;5001810;28;20395;-74
2020/12/28 09:30:12;;;;;;;1.48;1.33;;;6.40;99.90;;;;;;5001984;28;20065;-78
2020/12/28 09:32:40;;;;;;;2.10;1.55;;;6.60;99.90;;;;;;5003084;28;20577;-77
2020/12/28 09:35:07;;;;;;;1.75;1.50;;;6.50;99.90;;;;;;4996627;28;20105;-78
2020/12/28 09:37:33;;;;;;;3.60;1.60;;;6.50;99.90;;;;;;5002289;28;20085;-76
2020/12/28 09:40:00;;;;;;;2.30;1.33;;;6.70;99.90;;;;;;5004026;28;20049;-77
2020/12/28 09:42:26;;;;;;;2.35;1.40;;;6.70;99.90;;;;;;5001377;28;20050;-77
2020/12/28 09:44:53;;;;;;;5.32;1.80;;;6.60;99.90;;;;;;5004904;28;20133;-77
2020/12/28 09:47:19;;;;;;;2.25;1.50;;;6.80;99.90;;;;;;4987003;28;20054;-77
2020/12/28 09:49:45;;;;;;;3.50;1.40;;;6.80;99.90;;;;;;5005755;28;20143;-76
2020/12/28 09:52:12;;;;;;;1.88;1.20;;;6.80;99.90;;;;;;5004334;28;20049;-75
2020/12/28 09:54:39;;;;;;;5.13;1.55;;;6.90;99.90;;;;;;4999017;28;20050;-78
2020/12/28 09:57:06;;;;;;;1.48;0.95;;;6.90;99.90;;;;;;4987152;28;20080;-77
2020/12/28 09:59:37;;;;;;;1.80;1.15;;;6.80;99.90;;;;;;4998730;28;20076;-77
2020/12/28 10:02:07;;;;;;;1.50;0.95;;;6.90;99.90;;;;;;4985089;28;20460;-78
2020/12/28 10:04:34;;;;;;;1.85;1.15;;;7.00;99.90;;;;;;5005373;28;20425;-77
2020/12/28 10:07:01;;;;;;;3.47;2.20;;;7.00;99.90;;;;;;4999152;28;20651;-77
2020/12/28 10:09:27;;;;;;;2.47;1.95;;;7.00;99.90;;;;;;4989419;28;20135;-77
2020/12/28 10:11:54;;;;;;;2.08;1.35;;;7.10;99.90;;;;;;5004978;28;20499;-78
2020/12/28 10:14:21;;;;;;;1.08;0.85;;;7.10;99.90;;;;;;5005584;28;20082;-79
2020/12/28 10:16:48;;;;;;;1.92;1.20;;;7.00;99.90;;;;;;4972417;28;20054;-78
2020/12/28 10:19:16;;;;;;;1.95;1.10;;;7.10;99.90;;;;;;4989750;28;20054;-80
2020/12/28 10:21:43;;;;;;;1.77;0.93;;;7.10;99.90;;;;;;4988752;28;20089;-77
2020/12/28 10:24:09;;;;;;;2.53;0.90;;;7.20;99.90;;;;;;5005330;28;20057;-78
2020/12/28 10:26:36;;;;;;;0.98;0.85;;;7.20;99.90;;;;;;5000551;28;20046;-80
2020/12/28 10:29:02;;;;;;;0.93;0.80;;;7.10;99.90;;;;;;4990933;28;20140;-79
2020/12/28 10:31:29;;;;;;;0.98;0.80;;;7.10;99.90;;;;;;4998691;28;20061;-78
2020/12/28 10:33:56;;;;;;;3.17;1.02;;;7.00;99.90;;;;;;4985909;28;20726;-80
2020/12/28 10:36:24;;;;;;;0.70;0.52;;;7.10;99.90;;;;;;4988931;28;20046;-78
2020/12/28 10:38:53;;;;;;;1.27;0.90;;;7.20;99.90;;;;;;4987716;28;20058;-78
2020/12/28 10:41:24;;;;;;;1.60;1.20;;;7.10;99.90;;;;;;5001775;28;20100;-80
2020/12/28 10:43:51;;;;;;;1.75;0.73;;;7.10;99.90;;;;;;5004230;28;20546;-80
2020/12/28 10:46:18;;;;;;;1.35;0.70;;;7.30;99.90;;;;;;4994759;28;20074;-79
2020/12/28 10:48:44;;;;;;;0.70;0.60;;;7.40;99.90;;;;;;5005877;28;20505;-71
2020/12/28 10:51:11;;;;;;;1.40;0.77;;;7.40;99.90;;;;;;5005627;28;20057;-72
2020/12/28 10:53:38;;;;;;;1.30;0.80;;;7.40;99.90;;;;;;5000382;28;20193;-74
2020/12/28 10:56:08;;;;;;;1.88;0.93;;;7.40;99.90;;;;;;4987360;28;20050;-77
2020/12/28 10:58:35;;;;;;;1.67;1.00;;;7.50;99.90;;;;;;5001657;28;20049;-81
2020/12/28 11:01:05;;;;;;;1.73;0.90;;;7.40;99.90;;;;;;5008713;28;20537;-78
2020/12/28 11:03:33;;;;;;;1.35;0.93;;;7.50;99.90;;;;;;4982793;28;20050;-85
2020/12/28 11:06:03;;;;;;;1.35;1.00;;;7.40;99.90;;;;;;5006378;28;20136;-87
2020/12/28 11:08:30;;;;;;;2.58;1.20;;;7.70;99.90;;;;;;4987019;28;20057;-85
2020/12/28 11:10:57;;;;;;;1.85;1.17;;;7.60;99.90;;;;;;4985336;28;20444;-75
2020/12/28 11:13:23;;;;;;;1.73;1.00;;;7.70;99.90;;;;;;4991100;28;20054;-76
2020/12/28 11:15:50;;;;;;;1.70;1.10;;;7.70;99.90;;;;;;4991444;28;20050;-77
2020/12/28 11:18:17;;;;;;;1.20;1.10;;;7.70;99.90;;;;;;4992214;28;20060;-78
2020/12/28 11:20:43;;;;;;;1.60;1.10;;;7.70;99.90;;;;;;4987074;28;20494;-76
2020/12/28 11:23:14;;;;;;;4.22;1.17;;;7.70;99.90;;;;;;5002907;28;20069;-79
2020/12/28 11:25:41;;;;;;;1.88;1.33;;;7.70;99.90;;;;;;4987633;28;20050;-79
2020/12/28 11:28:07;;;;;;;1.58;0.90;;;7.70;99.90;;;;;;4986754;28;20116;-79
2020/12/28 11:30:34;;;;;;;0.85;0.80;;;7.60;99.90;;;;;;4987689;28;20108;-78
2020/12/28 11:33:00;;;;;;;1.98;1.02;;;7.60;99.90;;;;;;4992411;28;20046;-80
2020/12/28 11:35:26;;;;;;;1.50;0.90;;;7.70;99.90;;;;;;5006268;28;20047;-75
2020/12/28 11:37:53;;;;;;;1.48;1.17;;;7.70;99.90;;;;;;5002253;28;20054;-80
2020/12/28 11:40:19;;;;;;;1.25;1.00;;;7.80;99.90;;;;;;4983270;28;20057;-79
2020/12/28 11:42:46;;;;;;;1.77;0.93;;;7.80;99.90;;;;;;5004123;28;20053;-83
2020/12/28 11:45:12;;;;;;;1.45;0.90;;;7.70;99.90;;;;;;5001620;28;20128;-83
2020/12/28 11:47:39;;;;;;;1.55;1.10;;;7.70;99.90;;;;;;5002721;28;20514;-84
2020/12/28 11:50:06;;;;;;;1.27;1.10;;;7.70;99.90;;;;;;5000959;28;20049;-84
2020/12/28 11:52:33;;;;;;;1.10;0.98;;;7.70;99.90;;;;;;4985817;28;20069;-83
2020/12/28 11:54:59;;;;;;;2.08;1.10;;;7.60;99.90;;;;;;5001150;28;20076;-83
2020/12/28 11:57:26;;;;;;;2.13;1.10;;;7.50;99.90;;;;;;4983819;28;20321;-81
2020/12/28 11:59:53;;;;;;;3.10;1.30;;;7.50;99.90;;;;;;4990175;28;20386;-81
2020/12/28 12:02:22;;;;;;;1.35;1.00;;;7.50;99.90;;;;;;4956492;28;20065;-75
2020/12/28 12:04:49;;;;;;;2.10;1.10;;;7.50;99.90;;;;;;4987068;28;20421;-75
2020/12/28 12:07:21;;;;;;;1.38;1.00;;;7.40;99.90;;;;;;4985216;28;20477;-76
2020/12/28 12:09:49;;;;;;;1.52;1.02;;;7.40;99.90;;;;;;4990088;28;20128;-76
2020/12/28 12:12:17;;;;;;;1.00;0.88;;;7.40;99.90;;;;;;4987443;28;20470;-80
2020/12/28 12:14:43;;;;;;;1.75;1.20;;;7.40;99.90;;;;;;4985780;28;20112;-73
2020/12/28 12:17:10;;;;;;;1.95;1.00;;;7.40;99.90;;;;;;4989064;28;20050;-76
2020/12/28 12:19:36;;;;;;;1.15;1.00;;;7.40;99.90;;;;;;4958533;28;20382;-75
2020/12/28 12:22:03;;;;;;;2.45;1.45;;;7.40;99.90;;;;;;4976455;28;20580;-77
2020/12/28 12:24:30;;;;;;;1.60;1.25;;;7.50;99.90;;;;;;4986605;28;20053;-75
2020/12/28 12:26:56;;;;;;;3.72;1.50;;;7.40;99.90;;;;;;4972304;28;20127;-74
2020/12/28 12:29:23;;;;;;;2.58;1.27;;;7.30;99.90;;;;;;4976902;28;20097;-74
2020/12/28 12:31:53;;;;;;;1.92;1.33;;;7.30;99.90;;;;;;4989215;28;20558;-74
2020/12/28 12:34:20;;;;;;;2.03;1.20;;;6.90;99.90;;;;;;4992705;28;20060;-74
2020/12/28 12:36:47;;;;;;;3.72;1.10;;;6.80;99.90;;;;;;4990352;28;20049;-77
2020/12/28 12:39:13;;;;;;;3.03;1.10;;;6.70;99.90;;;;;;4995294;28;20129;-77
2020/12/28 12:41:41;;;;;;;10.43;1.48;;;6.60;99.90;;;;;;4992253;28;20050;-77
2020/12/28 12:44:07;;;;;;;1.65;1.08;;;6.60;99.90;;;;;;4994926;28;20054;-78
2020/12/28 12:46:34;;;;;;;2.95;1.05;;;6.40;99.90;;;;;;4994640;28;20057;-76
2020/12/28 12:49:00;;;;;;;3.80;1.20;;;6.30;99.90;;;;;;4977614;28;20054;-77
2020/12/28 12:51:27;;;;;;;1.50;0.98;;;6.50;99.90;;;;;;4991898;28;20054;-77
2020/12/28 12:53:54;;;;;;;1.58;0.82;;;6.10;99.90;;;;;;4991906;28;20659;-77
2020/12/28 12:56:21;;;;;;;3.40;1.45;;;5.90;99.90;;;;;;4975107;28;20060;-77
2020/12/28 12:58:49;;;;;;;9.07;1.10;;;6.40;99.90;;;;;;4973978;28;20120;-77
2020/12/28 13:01:16;;;;;;;5.32;1.10;;;6.00;99.90;;;;;;4971689;28;20622;-76